createdAt,value
2023-04-07T00:00:11.161Z,99.99
2023-04-07T00:01:11.189Z,99.99
2023-04-07T00:02:11.239Z,99.99
2023-04-07T00:03:11.239Z,99.99
2023-04-07T00:04:11.270Z,99.99
2023-04-07T00:05:11.155Z,99.99
2023-04-07T00:06:11.115Z,99.99
2023-04-07T00:07:11.103Z,99.99
2023-04-07T00:08:11.104Z,99.99
2023-04-07T00:09:11.123Z,99.99
2023-04-07T00:10:11.099Z,99.99
2023-04-07T00:11:11.076Z,99.99
2023-04-07T00:12:11.043Z,99.99
2023-04-07T00:13:11.031Z,99.99
2023-04-07T00:14:11.055Z,99.99
2023-04-07T00:15:10.998Z,99.99
2023-04-07T00:16:11.023Z,99.99
2023-04-07T00:17:10.997Z,99.99
2023-04-07T00:18:11.012Z,99.99
2023-04-07T00:19:11.014Z,99.99
2023-04-07T00:20:10.942Z,99.99
2023-04-07T00:21:10.940Z,99.99
2023-04-07T00:22:10.938Z,99.99
2023-04-07T00:23:10.931Z,99.99
2023-04-07T00:24:12.878Z,99.99
2023-04-07T00:25:10.910Z,99.99
2023-04-07T00:26:10.881Z,99.99
2023-04-07T00:27:10.896Z,99.99
2023-04-07T00:28:10.866Z,99.99
2023-04-07T00:29:10.857Z,99.99
2023-04-07T00:30:10.877Z,99.99
2023-04-07T00:31:10.881Z,99.99
2023-04-07T00:32:10.814Z,99.99
2023-04-07T00:33:10.829Z,99.99
2023-04-07T00:34:10.816Z,99.99
2023-04-07T00:35:10.830Z,99.99
2023-04-07T00:36:10.820Z,99.99
2023-04-07T00:37:10.778Z,99.99
2023-04-07T00:38:10.757Z,99.99
2023-04-07T00:39:10.742Z,99.99
2023-04-07T00:40:10.764Z,99.99
2023-04-07T00:41:10.737Z,99.99
2023-04-07T00:42:10.722Z,99.99
2023-04-07T00:43:10.691Z,99.99
2023-04-07T00:44:10.699Z,99.99
2023-04-07T00:45:10.698Z,99.99
2023-04-07T00:46:10.693Z,99.99
2023-04-07T00:47:10.673Z,99.99
2023-04-07T00:48:10.642Z,99.99
2023-04-07T00:49:11.464Z,99.99
2023-04-07T00:50:10.709Z,99.99
2023-04-07T00:51:10.601Z,99.99
2023-04-07T00:52:10.592Z,99.99
2023-04-07T00:53:10.615Z,99.99
2023-04-07T00:54:10.568Z,99.99
2023-04-07T00:55:10.612Z,99.99
2023-04-07T00:56:10.543Z,99.99
2023-04-07T00:57:10.534Z,99.99
2023-04-07T00:58:10.519Z,99.99
2023-04-07T00:59:10.528Z,99.99
2023-04-07T01:00:10.534Z,99.99
2023-04-07T01:01:10.492Z,99.99
2023-04-07T01:02:10.582Z,99.99
2023-04-07T01:03:10.696Z,99.99
2023-04-07T01:04:10.517Z,99.99
2023-04-07T01:05:10.509Z,99.99
2023-04-07T01:06:10.440Z,99.99
2023-04-07T01:07:10.423Z,99.99
2023-04-07T01:08:10.398Z,99.99
2023-04-07T01:09:10.413Z,99.99
2023-04-07T01:10:10.454Z,99.99
2023-04-07T01:11:10.370Z,99.99
2023-04-07T01:12:10.361Z,99.99
2023-04-07T01:13:10.356Z,99.99
2023-04-07T01:14:10.333Z,99.99
2023-04-07T01:15:10.379Z,99.99
2023-04-07T01:16:10.346Z,99.99
2023-04-07T01:17:10.312Z,99.99
2023-04-07T01:18:10.317Z,99.99
2023-04-07T01:19:10.285Z,99.99
2023-04-07T01:20:10.310Z,99.99
2023-04-07T01:21:10.262Z,99.99
2023-04-07T01:22:10.249Z,99.99
2023-04-07T01:23:10.250Z,99.99
2023-04-07T01:24:10.219Z,99.99
2023-04-07T01:25:10.312Z,99.99
2023-04-07T01:26:10.208Z,99.99
2023-04-07T01:27:10.325Z,99.99
2023-04-07T01:28:10.177Z,99.99
2023-04-07T01:29:10.177Z,99.99
2023-04-07T01:30:10.198Z,99.99
2023-04-07T01:31:10.150Z,99.99
2023-04-07T01:32:10.205Z,99.99
2023-04-07T01:33:10.148Z,99.99
2023-04-07T01:34:10.110Z,99.99
2023-04-07T01:35:10.177Z,99.99
2023-04-07T01:36:10.103Z,99.99
2023-04-07T01:37:10.143Z,99.99
2023-04-07T01:38:10.078Z,99.99
2023-04-07T01:39:10.071Z,99.99
2023-04-07T01:40:10.104Z,99.99
2023-04-07T01:41:10.039Z,99.99
2023-04-07T01:42:10.036Z,99.99
2023-04-07T01:43:10.014Z,99.99
2023-04-07T01:44:10.002Z,99.99
2023-04-07T01:45:10.042Z,99.99
2023-04-07T01:46:09.992Z,99.99
2023-04-07T01:47:10.038Z,99.99
2023-04-07T01:48:10.012Z,99.99
2023-04-07T01:49:09.955Z,99.99
2023-04-07T01:50:09.998Z,99.99
2023-04-07T01:51:09.936Z,99.93
2023-04-07T01:52:09.929Z,99.82
2023-04-07T01:53:09.906Z,99.82
2023-04-07T01:54:09.925Z,99.71
2023-04-07T01:55:09.950Z,99.99
2023-04-07T01:56:09.881Z,99.99
2023-04-07T01:57:09.875Z,99.99
2023-04-07T01:58:09.881Z,99.99
2023-04-07T01:59:09.848Z,99.99
2023-04-07T02:00:09.907Z,99.99
2023-04-07T02:01:09.913Z,99.99
2023-04-07T02:02:09.953Z,99.99
2023-04-07T02:03:10.032Z,99.99
2023-04-07T02:04:09.852Z,99.99
2023-04-07T02:05:09.836Z,99.99
2023-04-07T02:06:09.773Z,99.99
2023-04-07T02:07:09.765Z,99.99
2023-04-07T02:08:09.760Z,99.99
2023-04-07T02:09:09.748Z,99.99
2023-04-07T02:10:09.764Z,99.99
2023-04-07T02:11:09.717Z,99.99
2023-04-07T02:12:09.710Z,99.99
2023-04-07T02:13:09.692Z,99.99
2023-04-07T02:14:09.688Z,99.99
2023-04-07T02:15:09.717Z,99.99
2023-04-07T02:16:09.694Z,99.99
2023-04-07T02:17:09.653Z,99.99
2023-04-07T02:18:09.632Z,99.99
2023-04-07T02:19:09.649Z,99.99
2023-04-07T02:20:09.659Z,99.99
2023-04-07T02:21:09.592Z,99.99
2023-04-07T02:22:09.601Z,99.99
2023-04-07T02:23:09.581Z,99.99
2023-04-07T02:24:09.593Z,99.99
2023-04-07T02:25:09.593Z,99.99
2023-04-07T02:26:09.567Z,99.99
2023-04-07T02:27:09.531Z,99.99
2023-04-07T02:28:09.533Z,99.99
2023-04-07T02:29:09.509Z,99.99
2023-04-07T02:30:09.567Z,99.99
2023-04-07T02:31:09.489Z,99.99
2023-04-07T02:32:09.555Z,99.99
2023-04-07T02:33:09.473Z,99.99
2023-04-07T02:34:09.470Z,99.99
2023-04-07T02:35:09.497Z,99.99
2023-04-07T02:36:09.436Z,99.99
2023-04-07T02:37:09.447Z,99.99
2023-04-07T02:38:09.409Z,99.99
2023-04-07T02:39:09.405Z,99.99
2023-04-07T02:40:09.448Z,99.99
2023-04-07T02:41:09.412Z,99.99
2023-04-07T02:42:09.378Z,99.99
2023-04-07T02:43:09.357Z,99.99
2023-04-07T02:44:09.373Z,99.99
2023-04-07T02:45:09.432Z,99.99
2023-04-07T02:46:09.359Z,99.99
2023-04-07T02:47:09.317Z,99.99
2023-04-07T02:48:09.306Z,99.99
2023-04-07T02:49:09.296Z,99.99
2023-04-07T02:50:09.350Z,99.99
2023-04-07T02:51:09.276Z,99.99
2023-04-07T02:52:09.265Z,99.99
2023-04-07T02:53:09.255Z,99.99
2023-04-07T02:54:09.243Z,99.99
2023-04-07T02:55:09.267Z,99.99
2023-04-07T02:56:09.233Z,99.99
2023-04-07T02:57:09.193Z,99.99
2023-04-07T02:58:09.195Z,99.99
2023-04-07T02:59:09.187Z,99.99
2023-04-07T03:00:09.234Z,99.99
2023-04-07T03:01:09.253Z,99.99
2023-04-07T03:02:09.240Z,99.99
2023-04-07T03:03:09.224Z,99.99
2023-04-07T03:04:09.252Z,99.99
2023-04-07T03:05:09.144Z,99.99
2023-04-07T03:06:09.153Z,99.99
2023-04-07T03:07:09.087Z,99.99
2023-04-07T03:08:10.472Z,99.99
2023-04-07T03:09:09.060Z,99.99
2023-04-07T03:10:09.049Z,99.99
2023-04-07T03:11:09.083Z,99.99
2023-04-07T03:12:09.040Z,99.99
2023-04-07T03:13:09.039Z,99.99
2023-04-07T03:14:09.114Z,99.99
2023-04-07T03:15:09.010Z,99.99
2023-04-07T03:16:09.028Z,99.99
2023-04-07T03:17:09.072Z,99.99
2023-04-07T03:18:08.966Z,99.99
2023-04-07T03:19:08.951Z,99.99
2023-04-07T03:20:08.944Z,99.99
2023-04-07T03:21:08.983Z,99.99
2023-04-07T03:22:08.934Z,99.99
2023-04-07T03:23:08.924Z,99.99
2023-04-07T03:24:08.938Z,99.99
2023-04-07T03:25:08.920Z,99.99
2023-04-07T03:26:08.926Z,99.99
2023-04-07T03:27:08.880Z,99.99
2023-04-07T03:28:08.877Z,99.99
2023-04-07T03:29:08.855Z,99.99
2023-04-07T03:30:08.899Z,99.99
2023-04-07T03:31:08.952Z,99.99
2023-04-07T03:32:08.851Z,99.99
2023-04-07T03:33:08.805Z,99.99
2023-04-07T03:34:08.795Z,99.99
2023-04-07T03:35:08.787Z,99.99
2023-04-07T03:36:08.848Z,99.99
2023-04-07T03:37:08.780Z,99.99
2023-04-07T03:38:08.726Z,99.99
2023-04-07T03:39:08.743Z,99.99
2023-04-07T03:40:08.738Z,99.99
2023-04-07T03:41:08.757Z,99.99
2023-04-07T03:42:08.737Z,99.99
2023-04-07T03:43:08.706Z,99.99
2023-04-07T03:44:08.682Z,99.99
2023-04-07T03:45:08.674Z,99.99
2023-04-07T03:46:08.755Z,99.99
2023-04-07T03:47:08.676Z,99.99
2023-04-07T03:48:08.669Z,99.99
2023-04-07T03:49:08.633Z,99.99
2023-04-07T03:50:08.645Z,99.99
2023-04-07T03:51:08.664Z,99.99
2023-04-07T03:52:08.623Z,99.99
2023-04-07T03:53:08.572Z,99.99
2023-04-07T03:54:08.584Z,99.99
2023-04-07T03:55:08.559Z,99.99
2023-04-07T03:56:08.600Z,99.99
2023-04-07T03:57:08.541Z,99.99
2023-04-07T03:58:08.542Z,99.99
2023-04-07T03:59:08.518Z,99.99
2023-04-07T04:00:08.531Z,99.99
2023-04-07T04:01:08.534Z,99.99
2023-04-07T04:02:08.589Z,99.99
2023-04-07T04:03:08.610Z,99.99
2023-04-07T04:04:08.667Z,99.99
2023-04-07T04:05:08.453Z,99.99
2023-04-07T04:06:08.467Z,99.99
2023-04-07T04:07:08.453Z,99.99
2023-04-07T04:08:08.419Z,99.99
2023-04-07T04:09:08.415Z,99.99
2023-04-07T04:10:08.410Z,99.99
2023-04-07T04:11:08.433Z,99.99
2023-04-07T04:12:08.387Z,99.99
2023-04-07T04:13:08.359Z,99.99
2023-04-07T04:14:08.360Z,99.99
2023-04-07T04:15:08.319Z,99.99
2023-04-07T04:16:08.389Z,99.99
2023-04-07T04:17:08.322Z,99.99
2023-04-07T04:18:08.307Z,99.99
2023-04-07T04:19:08.286Z,99.99
2023-04-07T04:20:08.285Z,99.99
2023-04-07T04:21:08.375Z,99.99
2023-04-07T04:22:08.263Z,99.99
2023-04-07T04:23:08.256Z,99.99
2023-04-07T04:24:08.228Z,99.99
2023-04-07T04:25:08.234Z,99.99
2023-04-07T04:26:08.246Z,99.99
2023-04-07T04:27:08.198Z,99.99
2023-04-07T04:28:08.187Z,99.99
2023-04-07T04:29:08.197Z,99.99
2023-04-07T04:30:08.176Z,99.99
2023-04-07T04:31:08.247Z,99.99
2023-04-07T04:32:08.133Z,99.99
2023-04-07T04:33:08.173Z,99.99
2023-04-07T04:34:08.122Z,99.99
2023-04-07T04:35:08.117Z,99.99
2023-04-07T04:36:08.128Z,99.99
2023-04-07T04:37:08.086Z,99.99
2023-04-07T04:38:08.079Z,99.99
2023-04-07T04:39:08.082Z,99.99
2023-04-07T04:40:08.060Z,99.99
2023-04-07T04:41:08.075Z,99.99
2023-04-07T04:42:08.035Z,99.99
2023-04-07T04:43:08.024Z,99.99
2023-04-07T04:44:08.346Z,99.99
2023-04-07T04:45:08.003Z,99.99
2023-04-07T04:46:08.041Z,99.99
2023-04-07T04:47:08.005Z,99.99
2023-04-07T04:48:07.980Z,99.99
2023-04-07T04:49:07.994Z,99.99
2023-04-07T04:50:07.962Z,99.99
2023-04-07T04:51:07.968Z,99.99
2023-04-07T04:52:07.924Z,99.99
2023-04-07T04:53:07.890Z,99.99
2023-04-07T04:54:07.896Z,99.99
2023-04-07T04:55:07.886Z,99.99
2023-04-07T04:56:07.955Z,99.99
2023-04-07T04:57:07.860Z,99.99
2023-04-07T04:58:07.861Z,99.99
2023-04-07T04:59:07.847Z,99.99
2023-04-07T05:00:07.826Z,99.99
2023-04-07T05:01:07.935Z,99.99
2023-04-07T05:02:07.899Z,99.99
2023-04-07T05:03:08.049Z,99.99
2023-04-07T05:04:07.906Z,99.99
2023-04-07T05:05:07.974Z,99.99
2023-04-07T05:06:07.890Z,99.99
2023-04-07T05:07:07.759Z,99.99
2023-04-07T05:08:07.750Z,99.99
2023-04-07T05:09:07.759Z,99.99
2023-04-07T05:10:07.726Z,99.99
2023-04-07T05:11:07.765Z,99.99
2023-04-07T05:12:07.727Z,99.99
2023-04-07T05:13:07.721Z,99.99
2023-04-07T05:14:07.680Z,99.99
2023-04-07T05:15:07.669Z,99.99
2023-04-07T05:16:07.773Z,99.99
2023-04-07T05:17:07.638Z,99.99
2023-04-07T05:18:07.637Z,99.99
2023-04-07T05:19:07.609Z,99.99
2023-04-07T05:20:07.614Z,99.99
2023-04-07T05:21:07.638Z,99.99
2023-04-07T05:22:07.583Z,99.99
2023-04-07T05:23:07.562Z,99.99
2023-04-07T05:24:09.229Z,99.99
2023-04-07T05:25:07.541Z,99.99
2023-04-07T05:26:07.582Z,98.77
2023-04-07T05:27:07.520Z,97.83
2023-04-07T05:28:07.531Z,96.78
2023-04-07T05:29:07.493Z,96.89
2023-04-07T05:30:07.500Z,97.37
2023-04-07T05:31:07.899Z,96.53
2023-04-07T05:32:07.550Z,95.38
2023-04-07T05:33:07.535Z,94.96
2023-04-07T05:34:07.446Z,95.28
2023-04-07T05:35:07.468Z,95.49
2023-04-07T05:36:07.531Z,95.86
2023-04-07T05:37:07.408Z,96.07
2023-04-07T05:38:07.409Z,96.59
2023-04-07T05:39:07.382Z,96.49
2023-04-07T05:40:07.391Z,96.03
2023-04-07T05:41:07.409Z,95.92
2023-04-07T05:42:07.370Z,95.92
2023-04-07T05:43:07.344Z,95.82
2023-04-07T05:44:07.428Z,95.36
2023-04-07T05:45:07.335Z,94.94
2023-04-07T05:46:07.465Z,95.78
2023-04-07T05:47:07.302Z,96.30
2023-04-07T05:48:07.317Z,96.40
2023-04-07T05:49:19.724Z,96.61
2023-04-07T05:50:08.287Z,96.30
2023-04-07T05:51:07.322Z,96.61
2023-04-07T05:52:07.258Z,96.71
2023-04-07T05:53:07.265Z,96.67
2023-04-07T05:54:07.247Z,96.56
2023-04-07T05:55:07.233Z,96.25
2023-04-07T05:56:07.230Z,96.25
2023-04-07T05:57:07.178Z,95.83
2023-04-07T05:58:07.167Z,96.00
2023-04-07T05:59:07.145Z,95.58
2023-04-07T06:00:07.152Z,95.48
2023-04-07T06:01:07.186Z,95.43
2023-04-07T06:02:07.189Z,94.81
2023-04-07T06:03:07.158Z,92.41
2023-04-07T06:04:07.114Z,91.89
2023-04-07T06:05:07.132Z,92.21
2023-04-07T06:06:07.152Z,92.72
2023-04-07T06:07:07.093Z,92.68
2023-04-07T06:08:07.061Z,92.58
2023-04-07T06:09:08.270Z,92.68
2023-04-07T06:10:07.050Z,91.50
2023-04-07T06:11:07.081Z,91.60
2023-04-07T06:12:07.070Z,91.91
2023-04-07T06:13:07.008Z,91.66
2023-04-07T06:14:07.023Z,90.83
2023-04-07T06:15:06.989Z,89.79
2023-04-07T06:16:06.978Z,90.00
2023-04-07T06:17:07.109Z,89.54
2023-04-07T06:18:06.960Z,88.71
2023-04-07T06:19:06.939Z,87.66
2023-04-07T06:20:06.918Z,87.35
2023-04-07T06:21:06.929Z,88.46
2023-04-07T06:22:06.955Z,88.25
2023-04-07T06:23:06.896Z,88.52
2023-04-07T06:24:06.893Z,86.96
2023-04-07T06:25:06.858Z,86.65
2023-04-07T06:26:06.846Z,85.88
2023-04-07T06:27:06.883Z,85.68
2023-04-07T06:28:06.874Z,86.30
2023-04-07T06:29:06.816Z,85.22
2023-04-07T06:30:06.829Z,84.19
2023-04-07T06:31:06.819Z,83.22
2023-04-07T06:32:06.834Z,82.59
2023-04-07T06:33:06.803Z,81.38
2023-04-07T06:34:06.750Z,82.39
2023-04-07T06:35:06.762Z,81.49
2023-04-07T06:36:06.743Z,82.32
2023-04-07T06:37:06.829Z,81.38
2023-04-07T06:38:06.732Z,82.53
2023-04-07T06:39:06.709Z,82.32
2023-04-07T06:40:06.701Z,83.15
2023-04-07T06:41:06.683Z,83.77
2023-04-07T06:42:06.732Z,84.77
2023-04-07T06:43:06.729Z,84.98
2023-04-07T06:44:07.641Z,82.59
2023-04-07T06:45:06.653Z,83.73
2023-04-07T06:46:06.674Z,82.90
2023-04-07T06:47:06.660Z,83.17
2023-04-07T06:48:06.649Z,83.03
2023-04-07T06:49:06.605Z,80.75
2023-04-07T06:50:06.580Z,80.37
2023-04-07T06:51:06.550Z,80.83
2023-04-07T06:52:06.590Z,82.39
2023-04-07T06:53:06.548Z,81.76
2023-04-07T06:54:06.520Z,83.32
2023-04-07T06:55:06.512Z,83.07
2023-04-07T06:56:06.527Z,83.90
2023-04-07T06:57:06.538Z,83.45
2023-04-07T06:58:06.489Z,83.10
2023-04-07T06:59:06.487Z,81.96
2023-04-07T07:00:06.466Z,82.17
2023-04-07T07:01:06.510Z,81.61
2023-04-07T07:02:06.564Z,81.82
2023-04-07T07:03:06.635Z,81.26
2023-04-07T07:04:06.764Z,79.54
2023-04-07T07:05:06.410Z,78.71
2023-04-07T07:06:06.405Z,78.50
2023-04-07T07:07:06.433Z,78.81
2023-04-07T07:08:06.378Z,79.23
2023-04-07T07:09:06.381Z,78.50
2023-04-07T07:10:06.341Z,78.61
2023-04-07T07:11:06.353Z,78.57
2023-04-07T07:12:06.506Z,78.05
2023-04-07T07:13:06.326Z,77.95
2023-04-07T07:14:07.120Z,78.22
2023-04-07T07:15:06.331Z,77.56
2023-04-07T07:16:06.353Z,77.05
2023-04-07T07:17:06.362Z,76.32
2023-04-07T07:18:07.190Z,76.50
2023-04-07T07:19:06.238Z,75.26
2023-04-07T07:20:06.256Z,75.57
2023-04-07T07:21:06.227Z,75.78
2023-04-07T07:22:06.263Z,76.39
2023-04-07T07:23:06.188Z,76.60
2023-04-07T07:24:06.220Z,76.50
2023-04-07T07:25:06.182Z,74.43
2023-04-07T07:26:06.165Z,75.26
2023-04-07T07:27:06.202Z,75.95
2023-04-07T07:28:06.230Z,74.60
2023-04-07T07:29:06.163Z,75.74
2023-04-07T07:30:06.120Z,73.85
2023-04-07T07:31:06.143Z,72.95
2023-04-07T07:32:06.143Z,73.26
2023-04-07T07:33:06.161Z,74.22
2023-04-07T07:34:06.078Z,74.12
2023-04-07T07:35:06.067Z,74.84
2023-04-07T07:36:06.159Z,74.53
2023-04-07T07:37:06.241Z,74.53
2023-04-07T07:38:06.030Z,74.74
2023-04-07T07:39:06.033Z,76.09
2023-04-07T07:40:06.029Z,75.36
2023-04-07T07:41:06.013Z,76.15
2023-04-07T07:42:06.073Z,76.94
2023-04-07T07:43:05.975Z,74.33
2023-04-07T07:44:05.967Z,74.95
2023-04-07T07:45:05.989Z,73.50
2023-04-07T07:46:05.982Z,72.40
2023-04-07T07:47:06.001Z,72.61
2023-04-07T07:48:05.981Z,73.54
2023-04-07T07:49:05.983Z,73.36
2023-04-07T07:50:05.895Z,73.64
2023-04-07T07:51:05.918Z,73.95
2023-04-07T07:52:05.947Z,74.98
2023-04-07T07:53:05.863Z,73.74
2023-04-07T07:54:05.934Z,74.46
2023-04-07T07:55:05.850Z,74.26
2023-04-07T07:56:05.856Z,74.26
2023-04-07T07:57:05.870Z,74.53
2023-04-07T07:58:05.810Z,73.68
2023-04-07T07:59:05.833Z,73.47
2023-04-07T08:00:05.773Z,71.71
2023-04-07T08:01:05.771Z,72.44
2023-04-07T08:02:05.962Z,72.16
2023-04-07T08:03:05.844Z,73.50
2023-04-07T08:04:05.833Z,73.88
2023-04-07T08:05:05.762Z,72.92
2023-04-07T08:06:05.702Z,72.78
2023-04-07T08:07:05.758Z,73.50
2023-04-07T08:08:05.675Z,72.67
2023-04-07T08:09:05.898Z,72.88
2023-04-07T08:10:05.676Z,72.09
2023-04-07T08:11:05.705Z,72.64
2023-04-07T08:12:05.672Z,73.02
2023-04-07T08:13:05.638Z,72.30
2023-04-07T08:14:06.466Z,71.99
2023-04-07T08:15:05.614Z,72.30
2023-04-07T08:16:05.684Z,72.19
2023-04-07T08:17:05.620Z,73.33
2023-04-07T08:18:05.609Z,73.05
2023-04-07T08:19:05.629Z,71.51
2023-04-07T08:20:05.551Z,71.44
2023-04-07T08:21:05.557Z,71.55
2023-04-07T08:22:05.661Z,71.55
2023-04-07T08:23:05.576Z,71.82
2023-04-07T08:24:05.517Z,71.30
2023-04-07T08:25:05.513Z,71.78
2023-04-07T08:26:05.485Z,69.52
2023-04-07T08:27:05.528Z,70.10
2023-04-07T08:28:05.463Z,70.58
2023-04-07T08:29:05.490Z,70.41
2023-04-07T08:30:05.475Z,71.41
2023-04-07T08:31:05.535Z,70.37
2023-04-07T08:32:05.562Z,70.65
2023-04-07T08:33:05.489Z,70.76
2023-04-07T08:34:05.413Z,69.38
2023-04-07T08:35:05.399Z,68.46
2023-04-07T08:36:05.526Z,67.77
2023-04-07T08:37:05.401Z,69.01
2023-04-07T08:38:05.386Z,69.52
2023-04-07T08:39:05.330Z,68.93
2023-04-07T08:40:05.335Z,67.80
2023-04-07T08:41:05.327Z,69.65
2023-04-07T08:42:05.322Z,68.59
2023-04-07T08:43:05.326Z,68.39
2023-04-07T08:44:05.277Z,68.18
2023-04-07T08:45:05.497Z,67.25
2023-04-07T08:46:05.263Z,67.43
2023-04-07T08:47:05.391Z,67.30
2023-04-07T08:48:05.309Z,66.64
2023-04-07T08:49:05.242Z,67.75
2023-04-07T08:50:05.252Z,65.59
2023-04-07T08:51:05.254Z,64.87
2023-04-07T08:52:06.391Z,65.28
2023-04-07T08:53:07.310Z,64.87
2023-04-07T08:54:05.152Z,66.69
2023-04-07T08:55:05.150Z,66.41
2023-04-07T08:56:05.160Z,67.54
2023-04-07T08:57:05.196Z,68.05
2023-04-07T08:58:05.098Z,66.64
2023-04-07T08:59:05.100Z,67.36
2023-04-07T09:00:05.074Z,67.98
2023-04-07T09:01:05.136Z,68.05
2023-04-07T09:02:05.154Z,67.44
2023-04-07T09:03:05.134Z,68.16
2023-04-07T09:04:05.149Z,67.85
2023-04-07T09:05:05.012Z,68.67
2023-04-07T09:06:05.020Z,68.88
2023-04-07T09:07:05.072Z,66.72
2023-04-07T09:08:05.005Z,67.71
2023-04-07T09:09:04.981Z,68.46
2023-04-07T09:10:04.996Z,69.90
2023-04-07T09:11:04.952Z,70.38
2023-04-07T09:12:05.004Z,69.49
2023-04-07T09:13:04.971Z,69.90
2023-04-07T09:14:05.037Z,70.31
2023-04-07T09:15:04.908Z,70.21
2023-04-07T09:16:05.067Z,70.83
2023-04-07T09:17:05.011Z,71.44
2023-04-07T09:18:04.932Z,72.20
2023-04-07T09:19:04.881Z,72.09
2023-04-07T09:20:04.885Z,71.99
2023-04-07T09:21:04.859Z,73.43
2023-04-07T09:22:04.830Z,71.89
2023-04-07T09:23:04.860Z,72.37
2023-04-07T09:24:04.801Z,73.78
2023-04-07T09:25:04.800Z,71.20
2023-04-07T09:26:04.780Z,71.92
2023-04-07T09:27:04.768Z,71.62
2023-04-07T09:28:04.834Z,72.09
2023-04-07T09:29:04.750Z,70.35
2023-04-07T09:30:04.738Z,70.73
2023-04-07T09:31:04.723Z,72.13
2023-04-07T09:32:04.761Z,71.89
2023-04-07T09:33:04.767Z,69.32
2023-04-07T09:34:04.678Z,70.42
2023-04-07T09:35:04.685Z,68.78
2023-04-07T09:36:04.673Z,68.57
2023-04-07T09:37:04.646Z,68.57
2023-04-07T09:38:04.702Z,67.96
2023-04-07T09:39:04.639Z,67.11
2023-04-07T09:40:04.613Z,67.35
2023-04-07T09:41:04.603Z,66.39
2023-04-07T09:42:04.600Z,65.63
2023-04-07T09:43:04.646Z,67.20
2023-04-07T09:44:04.641Z,67.17
2023-04-07T09:45:04.670Z,67.55
2023-04-07T09:46:04.595Z,65.32
2023-04-07T09:47:04.588Z,65.48
2023-04-07T09:48:04.649Z,67.23
2023-04-07T09:49:04.575Z,66.72
2023-04-07T09:50:04.533Z,67.17
2023-04-07T09:51:04.536Z,66.86
2023-04-07T09:52:04.486Z,66.45
2023-04-07T09:53:04.522Z,66.14
2023-04-07T09:54:04.482Z,66.14
2023-04-07T09:55:04.451Z,67.10
2023-04-07T09:56:04.463Z,66.07
2023-04-07T09:57:04.460Z,66.04
2023-04-07T09:58:04.473Z,67.76
2023-04-07T09:59:04.424Z,66.42
2023-04-07T10:00:04.488Z,63.37
2023-04-07T10:01:04.544Z,63.71
2023-04-07T10:02:05.500Z,64.66
2023-04-07T10:03:04.639Z,65.38
2023-04-07T10:04:04.525Z,66.07
2023-04-07T10:05:04.398Z,66.17
2023-04-07T10:06:04.365Z,66.89
2023-04-07T10:07:04.308Z,67.61
2023-04-07T10:08:04.330Z,66.79
2023-04-07T10:09:04.292Z,68.02
2023-04-07T10:10:04.273Z,67.48
2023-04-07T10:11:04.266Z,66.66
2023-04-07T10:12:04.248Z,66.14
2023-04-07T10:13:04.334Z,67.17
2023-04-07T10:14:04.229Z,65.05
2023-04-07T10:15:04.242Z,65.48
2023-04-07T10:16:04.206Z,66.24
2023-04-07T10:17:04.477Z,66.44
2023-04-07T10:18:04.269Z,67.36
2023-04-07T10:19:04.174Z,66.85
2023-04-07T10:20:04.204Z,68.37
2023-04-07T10:21:04.126Z,67.68
2023-04-07T10:22:04.144Z,67.98
2023-04-07T10:23:04.160Z,68.40
2023-04-07T10:24:04.104Z,67.65
2023-04-07T10:25:04.085Z,66.61
2023-04-07T10:26:04.105Z,65.59
2023-04-07T10:27:04.060Z,66.82
2023-04-07T10:28:04.099Z,67.54
2023-04-07T10:29:04.027Z,67.75
2023-04-07T10:30:04.029Z,66.82
2023-04-07T10:31:04.112Z,67.30
2023-04-07T10:32:04.034Z,67.17
2023-04-07T10:33:04.129Z,65.01
2023-04-07T10:34:03.988Z,64.29
2023-04-07T10:35:04.002Z,65.63
2023-04-07T10:36:04.076Z,64.50
2023-04-07T10:37:03.968Z,61.88
2023-04-07T10:38:04.052Z,63.12
2023-04-07T10:39:04.010Z,63.15
2023-04-07T10:40:03.932Z,63.87
2023-04-07T10:41:03.911Z,65.80
2023-04-07T10:42:03.918Z,64.59
2023-04-07T10:43:03.944Z,65.38
2023-04-07T10:44:03.905Z,66.10
2023-04-07T10:45:03.874Z,67.23
2023-04-07T10:46:03.888Z,68.26
2023-04-07T10:47:03.850Z,66.89
2023-04-07T10:48:03.935Z,68.85
2023-04-07T10:49:03.837Z,68.61
2023-04-07T10:50:03.831Z,68.81
2023-04-07T10:51:03.811Z,66.66
2023-04-07T10:52:03.791Z,66.66
2023-04-07T10:53:03.808Z,69.53
2023-04-07T10:54:03.769Z,67.48
2023-04-07T10:55:03.744Z,67.17
2023-04-07T10:56:03.732Z,67.10
2023-04-07T10:57:03.719Z,70.04
2023-04-07T10:58:03.778Z,70.15
2023-04-07T10:59:03.702Z,67.58
2023-04-07T11:00:03.699Z,66.58
2023-04-07T11:01:03.683Z,67.44
2023-04-07T11:02:03.771Z,70.73
2023-04-07T11:03:03.840Z,71.86
2023-04-07T11:04:03.714Z,69.09
2023-04-07T11:05:03.638Z,70.66
2023-04-07T11:06:03.781Z,69.04
2023-04-07T11:07:03.636Z,71.41
2023-04-07T11:08:03.691Z,74.43
2023-04-07T11:09:03.582Z,79.03
2023-04-07T11:10:03.585Z,81.49
2023-04-07T11:11:03.596Z,79.99
2023-04-07T11:12:03.579Z,77.72
2023-04-07T11:13:03.613Z,80.09
2023-04-07T11:14:03.548Z,82.87
2023-04-07T11:15:03.551Z,83.18
2023-04-07T11:16:03.577Z,78.55
2023-04-07T11:17:03.540Z,81.74
2023-04-07T11:18:03.592Z,79.41
2023-04-07T11:19:03.504Z,78.41
2023-04-07T11:20:03.499Z,80.89
2023-04-07T11:21:03.454Z,82.43
2023-04-07T11:22:03.445Z,85.49
2023-04-07T11:23:03.484Z,85.17
2023-04-07T11:24:03.443Z,80.95
2023-04-07T11:25:03.397Z,81.37
2023-04-07T11:26:03.442Z,78.89
2023-04-07T11:27:03.378Z,82.35
2023-04-07T11:28:03.444Z,82.77
2023-04-07T11:29:03.373Z,79.79
2023-04-07T11:30:03.344Z,79.47
2023-04-07T11:31:03.357Z,80.51
2023-04-07T11:32:03.342Z,77.25
2023-04-07T11:33:03.431Z,78.38
2023-04-07T11:34:03.336Z,80.95
2023-04-07T11:35:03.284Z,81.43
2023-04-07T11:36:03.347Z,82.05
2023-04-07T11:37:03.276Z,78.44
2023-04-07T11:38:03.316Z,75.67
2023-04-07T11:39:03.385Z,77.66
2023-04-07T11:40:03.254Z,78.55
2023-04-07T11:41:03.403Z,78.48
2023-04-07T11:42:03.233Z,76.63
2023-04-07T11:43:03.256Z,74.77
2023-04-07T11:44:03.200Z,76.11
2023-04-07T11:45:03.192Z,75.39
2023-04-07T11:46:03.184Z,77.55
2023-04-07T11:47:03.341Z,77.76
2023-04-07T11:48:03.237Z,77.04
2023-04-07T11:49:03.111Z,75.70
2023-04-07T11:50:03.113Z,75.81
2023-04-07T11:51:03.095Z,75.60
2023-04-07T11:52:03.329Z,74.26
2023-04-07T11:53:03.158Z,75.22
2023-04-07T11:54:03.080Z,77.08
2023-04-07T11:55:03.066Z,77.28
2023-04-07T11:56:03.048Z,77.18
2023-04-07T11:57:03.029Z,76.25
2023-04-07T11:58:03.021Z,77.52
2023-04-07T11:59:03.056Z,76.18
2023-04-07T12:00:03.015Z,76.80
2023-04-07T12:01:02.984Z,79.96
2023-04-07T12:02:03.087Z,78.11
2023-04-07T12:03:03.180Z,78.41
2023-04-07T12:04:03.381Z,77.08
2023-04-07T12:05:03.069Z,78.72
2023-04-07T12:06:02.960Z,77.69
2023-04-07T12:07:02.930Z,79.20
2023-04-07T12:08:02.911Z,75.01
2023-04-07T12:09:03.013Z,76.04
2023-04-07T12:10:02.938Z,77.90
2023-04-07T12:11:02.871Z,79.20
2023-04-07T12:12:02.922Z,78.07
2023-04-07T12:13:02.856Z,77.14
2023-04-07T12:14:02.889Z,76.49
2023-04-07T12:15:02.832Z,79.27
2023-04-07T12:16:02.850Z,76.39
2023-04-07T12:17:02.804Z,77.48
2023-04-07T12:18:02.905Z,77.58
2023-04-07T12:19:02.860Z,78.37
2023-04-07T12:20:02.779Z,74.08
2023-04-07T12:21:02.776Z,73.91
2023-04-07T12:22:02.743Z,76.79
2023-04-07T12:23:02.745Z,76.76
2023-04-07T12:24:02.798Z,76.66
2023-04-07T12:25:02.721Z,75.32
2023-04-07T12:26:02.708Z,74.46
2023-04-07T12:27:02.693Z,76.01
2023-04-07T12:28:02.701Z,73.85
2023-04-07T12:29:02.721Z,74.87
2023-04-07T12:30:02.680Z,72.85
2023-04-07T12:31:02.719Z,73.26
2023-04-07T12:32:02.658Z,75.08
2023-04-07T12:33:02.670Z,72.44
2023-04-07T12:34:02.679Z,73.06
2023-04-07T12:35:02.613Z,71.82
2023-04-07T12:36:02.616Z,73.88
2023-04-07T12:37:02.580Z,74.63
2023-04-07T12:38:02.637Z,73.68
2023-04-07T12:39:02.626Z,74.22
2023-04-07T12:40:02.560Z,73.16
2023-04-07T12:41:02.538Z,73.16
2023-04-07T12:42:02.564Z,70.52
2023-04-07T12:43:02.492Z,72.88
2023-04-07T12:44:02.562Z,72.06
2023-04-07T12:45:02.467Z,72.92
2023-04-07T12:46:02.488Z,72.20
2023-04-07T12:47:02.477Z,73.85
2023-04-07T12:48:02.548Z,73.05
2023-04-07T12:49:02.482Z,75.90
2023-04-07T12:50:02.471Z,72.92
2023-04-07T12:51:02.436Z,71.41
2023-04-07T12:52:02.422Z,71.99